createdAt,value
2019-05-26T00:01:58.885Z,12.00
2019-05-26T00:04:27.714Z,12.00
2019-05-26T00:06:57.090Z,12.00
2019-05-26T00:09:25.918Z,12.00
2019-05-26T00:11:54.824Z,12.10
2019-05-26T00:14:23.674Z,12.10
2019-05-26T00:16:52.445Z,12.10
2019-05-26T00:19:21.250Z,12.10
2019-05-26T00:21:50.124Z,12.10
2019-05-26T00:24:19.035Z,12.00
2019-05-26T00:26:47.893Z,12.00
2019-05-26T00:29:16.722Z,12.00
2019-05-26T00:31:45.612Z,12.00
2019-05-26T00:34:14.703Z,12.00
2019-05-26T00:36:43.865Z,12.00
2019-05-26T00:39:12.663Z,11.90
2019-05-26T00:41:41.767Z,11.80
2019-05-26T00:44:10.614Z,11.80
2019-05-26T00:46:39.666Z,11.80
2019-05-26T00:49:08.713Z,11.70
2019-05-26T00:51:37.807Z,11.70
2019-05-26T00:54:06.669Z,11.50
2019-05-26T00:56:35.596Z,11.40
2019-05-26T00:59:04.820Z,11.30
2019-05-26T01:01:34.087Z,11.20
2019-05-26T01:04:02.956Z,11.10
2019-05-26T01:06:31.995Z,11.10
2019-05-26T01:09:00.830Z,11.10
2019-05-26T01:11:29.971Z,11.00
2019-05-26T01:13:58.815Z,11.00
2019-05-26T01:16:27.643Z,11.00
2019-05-26T01:18:56.520Z,11.00
2019-05-26T01:21:25.550Z,11.00
2019-05-26T01:23:54.356Z,10.90
2019-05-26T01:26:23.232Z,10.90
2019-05-26T01:28:52.231Z,10.90
2019-05-26T01:31:21.026Z,11.00
2019-05-26T01:33:50.098Z,11.00
2019-05-26T01:36:19.190Z,11.10
2019-05-26T01:38:48.844Z,11.20
2019-05-26T01:41:17.647Z,11.20
2019-05-26T01:43:46.507Z,11.20
2019-05-26T01:46:15.286Z,11.30
2019-05-26T01:48:44.238Z,11.30
2019-05-26T01:51:13.414Z,11.40
2019-05-26T01:53:42.206Z,11.50
2019-05-26T01:56:11.105Z,11.50
2019-05-26T01:58:40.226Z,11.60
2019-05-26T02:01:09.079Z,11.60
2019-05-26T02:03:37.928Z,11.60
2019-05-26T02:06:06.735Z,11.60
2019-05-26T02:08:39.401Z,11.60
2019-05-26T02:11:06.172Z,11.60
2019-05-26T02:13:35.465Z,11.60
2019-05-26T02:16:04.879Z,11.50
2019-05-26T02:18:34.135Z,11.40
2019-05-26T02:21:03.244Z,11.30
2019-05-26T02:23:32.319Z,11.20
2019-05-26T02:26:01.199Z,11.20
2019-05-26T02:28:30.093Z,11.10
2019-05-26T02:30:58.945Z,11.10
2019-05-26T02:33:28.015Z,11.00
2019-05-26T02:35:56.831Z,10.90
2019-05-26T02:38:26.431Z,10.80
2019-05-26T02:40:55.544Z,10.80
2019-05-26T02:43:24.349Z,10.80
2019-05-26T02:45:53.371Z,10.60
2019-05-26T02:48:22.577Z,10.50
2019-05-26T02:50:51.352Z,10.40
2019-05-26T02:53:24.544Z,10.40
2019-05-26T02:55:50.944Z,10.40
2019-05-26T02:58:19.821Z,10.30
2019-05-26T03:00:49.004Z,10.30
2019-05-26T03:03:18.169Z,10.30
2019-05-26T03:05:47.216Z,10.30
2019-05-26T03:08:17.407Z,10.20
2019-05-26T03:10:48.157Z,10.20
2019-05-26T03:13:18.996Z,10.20
2019-05-26T03:15:48.343Z,10.20
2019-05-26T03:18:18.156Z,10.10
2019-05-26T03:20:47.071Z,10.10
2019-05-26T03:23:16.610Z,10.10
2019-05-26T03:25:45.598Z,10.10
2019-05-26T03:28:14.589Z,10.10
2019-05-26T03:30:43.704Z,10.00
2019-05-26T03:33:12.496Z,10.00
2019-05-26T03:35:41.590Z,10.00
2019-05-26T03:38:10.427Z,10.00
2019-05-26T03:40:39.202Z,10.00
2019-05-26T03:43:07.976Z,10.00
2019-05-26T03:46:16.984Z,9.90
2019-05-26T03:48:46.329Z,9.90
2019-05-26T03:51:15.343Z,9.90
2019-05-26T03:53:44.125Z,9.80
2019-05-26T03:56:13.205Z,9.80
2019-05-26T03:58:41.998Z,9.90
2019-05-26T04:01:11.032Z,9.80
2019-05-26T04:03:40.129Z,9.90
2019-05-26T04:06:08.910Z,9.90
2019-05-26T04:08:38.020Z,10.10
2019-05-26T04:11:07.288Z,10.20
2019-05-26T04:13:36.170Z,10.30
2019-05-26T04:16:05.549Z,10.40
2019-05-26T04:18:34.378Z,10.50
2019-05-26T04:21:03.221Z,10.50
2019-05-26T04:23:32.530Z,10.60
2019-05-26T04:26:01.401Z,10.50
2019-05-26T04:28:30.277Z,10.50
2019-05-26T04:30:59.755Z,10.40
2019-05-26T04:33:28.519Z,10.30
2019-05-26T04:35:57.766Z,10.40
2019-05-26T04:38:26.623Z,10.30
2019-05-26T04:40:55.455Z,10.30
2019-05-26T04:43:24.313Z,10.40
2019-05-26T04:45:53.405Z,10.40
2019-05-26T04:48:22.239Z,10.60
2019-05-26T04:50:51.235Z,10.70
2019-05-26T04:53:22.904Z,10.90
2019-05-26T04:55:51.845Z,11.10
2019-05-26T04:58:20.822Z,11.30
2019-05-26T05:00:49.781Z,11.40
2019-05-26T05:03:19.907Z,11.60
2019-05-26T05:05:48.760Z,11.80
2019-05-26T05:08:17.597Z,12.00
2019-05-26T05:10:46.759Z,12.20
2019-05-26T05:13:16.070Z,12.50
2019-05-26T05:15:44.955Z,12.60
2019-05-26T05:18:13.836Z,12.80
2019-05-26T05:20:42.669Z,12.90
2019-05-26T05:23:11.618Z,13.00
2019-05-26T05:25:40.416Z,13.10
2019-05-26T05:28:09.301Z,13.30
2019-05-26T05:30:38.232Z,13.40
2019-05-26T05:33:06.998Z,13.50
2019-05-26T05:35:36.014Z,13.60
2019-05-26T05:38:04.985Z,13.80
2019-05-26T05:40:34.020Z,13.80
2019-05-26T05:43:03.197Z,13.90
2019-05-26T05:45:32.301Z,14.10
2019-05-26T05:48:01.221Z,14.30
2019-05-26T05:50:30.631Z,14.40
2019-05-26T05:52:59.570Z,14.40
2019-05-26T05:55:28.656Z,14.50
2019-05-26T05:57:57.976Z,14.70
2019-05-26T06:00:26.969Z,14.60
2019-05-26T06:02:56.105Z,14.90
2019-05-26T06:05:24.997Z,15.10
2019-05-26T06:07:53.936Z,15.20
2019-05-26T06:10:23.593Z,15.30
2019-05-26T06:12:52.423Z,15.40
2019-05-26T06:15:21.372Z,15.60
2019-05-26T06:17:50.636Z,15.70
2019-05-26T06:20:19.879Z,15.80
2019-05-26T06:22:48.843Z,16.10
2019-05-26T06:25:17.764Z,16.30
2019-05-26T06:27:46.685Z,16.50
2019-05-26T06:30:16.340Z,16.60
2019-05-26T06:32:45.140Z,16.70
2019-05-26T06:35:14.365Z,17.00
2019-05-26T06:37:43.200Z,17.20
2019-05-26T06:40:13.759Z,17.40
2019-05-26T06:42:43.556Z,17.60
2019-05-26T06:45:12.368Z,18.10
2019-05-26T06:47:41.150Z,18.80
2019-05-26T06:50:10.336Z,19.20
2019-05-26T06:52:39.226Z,20.10
2019-05-26T06:55:08.395Z,20.80
2019-05-26T06:57:37.159Z,21.40
2019-05-26T07:00:06.251Z,21.80
2019-05-26T07:02:35.254Z,22.10
2019-05-26T07:05:04.566Z,22.40
2019-05-26T07:07:33.679Z,23.00
2019-05-26T07:10:02.521Z,23.60
2019-05-26T07:12:31.608Z,24.10
2019-05-26T07:15:00.465Z,24.20
2019-05-26T07:17:29.749Z,24.30
2019-05-26T07:19:58.797Z,24.30
2019-05-26T07:22:27.919Z,23.80
2019-05-26T07:24:56.918Z,23.80
2019-05-26T07:27:25.759Z,24.20
2019-05-26T07:29:54.524Z,23.80
2019-05-26T07:32:23.628Z,24.60
2019-05-26T07:34:52.521Z,24.70
2019-05-26T07:37:21.332Z,24.80
2019-05-26T07:39:50.068Z,24.80
2019-05-26T07:42:18.791Z,24.80
2019-05-26T07:44:47.527Z,25.40
2019-05-26T07:47:16.366Z,25.60
2019-05-26T07:49:45.516Z,25.80
2019-05-26T07:52:14.256Z,25.60
2019-05-26T07:54:43.246Z,26.10
2019-05-26T07:57:13.559Z,26.60
2019-05-26T07:59:42.452Z,26.70
2019-05-26T08:02:11.260Z,26.70
2019-05-26T08:04:44.126Z,26.90
2019-05-26T08:08:12.734Z,27.20
2019-05-26T08:10:37.540Z,27.20
2019-05-26T08:13:06.784Z,26.90
2019-05-26T08:15:35.746Z,26.90
2019-05-26T08:18:07.351Z,26.60
2019-05-26T08:20:36.805Z,26.80
2019-05-26T08:23:05.640Z,27.50
2019-05-26T08:25:36.199Z,27.60
2019-05-26T08:28:05.156Z,27.50
2019-05-26T08:30:34.624Z,26.90
2019-05-26T08:33:03.470Z,27.00
2019-05-26T08:35:32.292Z,27.40
2019-05-26T08:38:01.117Z,27.50
2019-05-26T08:40:30.276Z,27.50
2019-05-26T08:42:59.058Z,27.60
2019-05-26T08:45:28.075Z,26.80
2019-05-26T08:47:56.922Z,27.10
2019-05-26T08:50:25.952Z,27.00
2019-05-26T08:52:54.977Z,26.70
2019-05-26T08:55:23.751Z,26.60
2019-05-26T08:57:52.717Z,27.20
2019-05-26T09:00:21.648Z,26.90
2019-05-26T09:02:50.657Z,27.10
2019-05-26T09:05:19.679Z,27.20
2019-05-26T09:07:48.747Z,26.80
2019-05-26T09:10:17.881Z,27.30
2019-05-26T09:12:59.723Z,27.40
2019-05-26T09:15:17.588Z,27.40
2019-05-26T09:17:46.570Z,26.10
2019-05-26T09:20:17.011Z,25.70
2019-05-26T09:22:45.815Z,26.30
2019-05-26T09:25:14.672Z,25.60
2019-05-26T09:27:43.497Z,26.20
2019-05-26T09:30:13.081Z,26.40
2019-05-26T09:32:41.834Z,26.80
2019-05-26T09:35:11.280Z,27.10
2019-05-26T09:37:40.044Z,27.30
2019-05-26T09:40:09.333Z,27.40
2019-05-26T09:42:38.470Z,27.30
2019-05-26T09:45:07.790Z,27.30
2019-05-26T09:47:36.916Z,27.30
2019-05-26T09:50:07.038Z,27.40
2019-05-26T09:52:35.950Z,27.30
2019-05-26T09:55:12.979Z,27.20
2019-05-26T09:57:41.691Z,27.00
2019-05-26T10:00:15.886Z,27.70
2019-05-26T10:02:42.865Z,27.90
2019-05-26T10:05:12.145Z,28.00
2019-05-26T10:07:41.178Z,27.70
2019-05-26T10:10:10.364Z,27.80
2019-05-26T10:12:39.163Z,27.40
2019-05-26T10:15:08.833Z,27.90
2019-05-26T10:17:37.792Z,27.10
2019-05-26T10:20:07.437Z,27.30
2019-05-26T10:22:36.619Z,27.10
2019-05-26T10:25:05.931Z,27.10
2019-05-26T10:27:34.722Z,26.90
2019-05-26T10:30:03.659Z,27.00
2019-05-26T10:32:32.388Z,27.40
2019-05-26T10:35:01.310Z,27.40
2019-05-26T10:37:30.192Z,27.40
2019-05-26T10:39:59.261Z,27.40
2019-05-26T10:42:28.039Z,27.40
2019-05-26T10:44:56.826Z,27.60
2019-05-26T10:47:25.898Z,27.90
2019-05-26T10:49:54.696Z,27.70
2019-05-26T10:52:23.428Z,27.70
2019-05-26T10:54:52.613Z,27.80
2019-05-26T10:57:21.664Z,28.10
2019-05-26T10:59:50.713Z,27.80
2019-05-26T11:02:19.529Z,27.50
2019-05-26T11:04:48.494Z,26.90
2019-05-26T11:07:17.355Z,26.50
2019-05-26T11:09:46.384Z,26.70
2019-05-26T11:12:15.816Z,26.70
2019-05-26T11:14:44.603Z,26.30
2019-05-26T11:17:13.500Z,26.10
2019-05-26T11:19:42.509Z,26.20
2019-05-26T11:22:11.685Z,26.50
2019-05-26T11:24:40.424Z,26.90
2019-05-26T11:27:12.552Z,27.00
2019-05-26T11:29:39.744Z,27.30
2019-05-26T11:32:08.674Z,27.40
2019-05-26T11:34:37.781Z,26.90
2019-05-26T11:37:06.953Z,26.30
2019-05-26T11:39:35.813Z,25.90
2019-05-26T11:42:12.780Z,25.60
2019-05-26T11:44:38.622Z,25.20
2019-05-26T11:47:07.486Z,25.00
2019-05-26T11:49:36.255Z,24.70
2019-05-26T11:52:05.113Z,24.30
2019-05-26T11:54:34.775Z,24.10
2019-05-26T11:57:04.114Z,24.00
2019-05-26T11:59:33.403Z,24.10
2019-05-26T12:02:02.274Z,24.00
2019-05-26T12:04:31.333Z,23.80
2019-05-26T12:07:04.103Z,23.70
2019-05-26T12:09:31.020Z,23.60
2019-05-26T12:12:01.115Z,23.60
2019-05-26T12:14:34.690Z,23.60
2019-05-26T12:17:00.389Z,23.60
2019-05-26T12:19:29.159Z,23.70
2019-05-26T12:21:58.086Z,23.80
2019-05-26T12:24:26.882Z,23.60
2019-05-26T12:26:55.600Z,23.50
2019-05-26T12:29:24.631Z,23.60
2019-05-26T12:31:53.359Z,23.60
2019-05-26T12:34:25.443Z,23.60
2019-05-26T12:36:55.012Z,23.70
2019-05-26T12:39:23.829Z,23.70
2019-05-26T12:41:52.889Z,23.50
2019-05-26T12:44:21.731Z,23.40
2019-05-26T12:46:50.447Z,23.50
2019-05-26T12:49:23.249Z,23.60
2019-05-26T12:51:51.967Z,23.50
2019-05-26T12:54:20.767Z,23.50
2019-05-26T12:56:49.540Z,23.50
2019-05-26T12:59:18.546Z,23.50
2019-05-26T13:01:48.764Z,23.70
2019-05-26T13:04:17.931Z,23.70
2019-05-26T13:06:46.726Z,23.60
2019-05-26T13:09:15.708Z,23.60
2019-05-26T13:11:44.544Z,23.60
2019-05-26T13:14:13.370Z,23.70
2019-05-26T13:16:42.250Z,23.70
2019-05-26T13:19:10.985Z,23.80
2019-05-26T13:21:39.902Z,23.90
2019-05-26T13:24:08.682Z,23.90
2019-05-26T13:26:37.631Z,24.00
2019-05-26T13:29:06.818Z,24.00
2019-05-26T13:31:35.530Z,24.00
2019-05-26T13:34:04.412Z,23.90
2019-05-26T13:36:33.144Z,23.80
2019-05-26T13:39:02.233Z,23.90
2019-05-26T13:41:31.080Z,23.90
2019-05-26T13:44:00.128Z,23.70
2019-05-26T13:46:29.123Z,23.70
2019-05-26T13:48:57.878Z,23.60
2019-05-26T13:51:26.720Z,23.60
2019-05-26T13:53:55.733Z,23.70
2019-05-26T13:56:24.559Z,23.70
2019-05-26T13:58:53.315Z,23.70
2019-05-26T14:01:22.073Z,23.80
2019-05-26T14:03:50.804Z,23.80
2019-05-26T14:06:19.547Z,23.80
2019-05-26T14:08:48.334Z,23.70
2019-05-26T14:11:17.344Z,23.60
2019-05-26T14:13:46.051Z,23.60
2019-05-26T14:16:15.915Z,23.50
2019-05-26T14:18:45.521Z,23.50
2019-05-26T14:21:14.588Z,23.40
2019-05-26T14:23:43.634Z,23.40
2019-05-26T14:26:12.358Z,23.40
2019-05-26T14:28:41.070Z,23.40
2019-05-26T14:31:09.799Z,23.50
2019-05-26T14:33:38.536Z,23.60
2019-05-26T14:36:07.495Z,23.60
2019-05-26T14:38:43.152Z,23.60
2019-05-26T14:41:07.164Z,23.60
2019-05-26T14:43:35.957Z,23.60
2019-05-26T14:46:04.761Z,23.60
2019-05-26T14:48:33.592Z,23.60
2019-05-26T14:51:02.339Z,23.40
2019-05-26T14:53:31.138Z,23.40
2019-05-26T14:55:59.865Z,23.40
2019-05-26T14:58:28.559Z,23.50
2019-05-26T15:00:57.538Z,23.40
2019-05-26T15:03:26.598Z,23.40
2019-05-26T15:06:05.484Z,23.30
2019-05-26T15:08:28.057Z,23.30
2019-05-26T15:10:57.189Z,23.30
2019-05-26T15:13:25.910Z,23.20
2019-05-26T15:16:08.907Z,23.10
2019-05-26T15:18:25.373Z,23.10
2019-05-26T15:20:56.114Z,23.00
2019-05-26T15:23:24.675Z,23.00
2019-05-26T15:25:53.453Z,23.10
2019-05-26T15:28:22.237Z,23.00
2019-05-26T15:30:51.288Z,23.10
2019-05-26T15:33:20.108Z,23.00
2019-05-26T15:35:48.910Z,22.90
2019-05-26T15:38:17.723Z,22.90
2019-05-26T15:40:46.532Z,22.90
2019-05-26T15:43:15.284Z,22.80
2019-05-26T15:45:44.045Z,22.80
2019-05-26T15:48:12.896Z,22.70
2019-05-26T15:50:41.667Z,22.70
2019-05-26T15:53:10.488Z,22.60
2019-05-26T15:55:40.321Z,22.60
2019-05-26T15:58:09.207Z,22.50
2019-05-26T16:00:38.179Z,22.50
2019-05-26T16:03:07.023Z,22.50
2019-05-26T16:05:35.752Z,22.40
2019-05-26T16:08:04.661Z,22.50
2019-05-26T16:10:33.440Z,22.50
2019-05-26T16:13:02.486Z,22.40
2019-05-26T16:15:31.995Z,22.40
2019-05-26T16:18:00.797Z,22.40
2019-05-26T16:20:29.541Z,22.50
2019-05-26T16:22:58.370Z,22.50
2019-05-26T16:25:27.271Z,22.60
2019-05-26T16:27:55.963Z,22.60
2019-05-26T16:30:24.843Z,22.60
2019-05-26T16:32:53.628Z,22.60
2019-05-26T16:35:22.865Z,22.60
2019-05-26T16:37:51.757Z,22.60
2019-05-26T16:40:20.643Z,22.50
2019-05-26T16:42:49.422Z,22.50
2019-05-26T16:45:18.501Z,22.50
2019-05-26T16:47:47.264Z,22.40
2019-05-26T16:50:16.041Z,22.40
2019-05-26T16:52:44.824Z,22.40
2019-05-26T16:55:13.745Z,22.30
2019-05-26T16:57:42.459Z,22.30
2019-05-26T17:00:11.664Z,22.30
2019-05-26T17:02:40.688Z,22.30
2019-05-26T17:05:09.526Z,22.20
2019-05-26T17:07:38.536Z,22.20
2019-05-26T17:10:07.587Z,22.20
2019-05-26T17:12:36.416Z,22.20
2019-05-26T17:15:05.475Z,22.10
2019-05-26T17:17:34.212Z,22.10
2019-05-26T17:20:03.016Z,22.00
2019-05-26T17:22:31.821Z,22.00
2019-05-26T17:25:00.579Z,22.00
2019-05-26T17:27:29.287Z,22.00
2019-05-26T17:29:58.352Z,21.90
2019-05-26T17:32:27.355Z,21.90
2019-05-26T17:34:56.402Z,21.90
2019-05-26T17:37:25.144Z,21.90
2019-05-26T17:39:53.843Z,21.80
2019-05-26T17:42:22.550Z,21.70
2019-05-26T17:44:51.358Z,21.70
2019-05-26T17:47:29.845Z,21.70
2019-05-26T17:49:51.083Z,21.70
2019-05-26T17:52:19.817Z,21.60
2019-05-26T17:54:48.920Z,21.50
2019-05-26T17:57:17.881Z,21.50
2019-05-26T17:59:46.588Z,21.50
2019-05-26T18:02:15.300Z,21.50
2019-05-26T18:04:44.126Z,21.30
2019-05-26T18:07:13.424Z,21.30
2019-05-26T18:09:44.606Z,21.20
2019-05-26T18:12:12.901Z,21.20
2019-05-26T18:14:44.800Z,21.20
2019-05-26T18:17:13.796Z,21.10
2019-05-26T18:19:42.503Z,21.00
2019-05-26T18:22:11.502Z,21.00
2019-05-26T18:24:52.375Z,20.90
2019-05-26T18:27:10.921Z,20.80
2019-05-26T18:29:39.676Z,20.70
2019-05-26T18:32:08.549Z,20.70
2019-05-26T18:34:37.407Z,20.50
2019-05-26T18:37:06.281Z,20.50
2019-05-26T18:39:35.133Z,20.30
2019-05-26T18:42:03.951Z,20.20
2019-05-26T18:44:32.756Z,20.20
2019-05-26T18:47:01.780Z,20.10
2019-05-26T18:49:31.314Z,19.90
2019-05-26T18:52:00.327Z,19.90
2019-05-26T18:54:29.556Z,19.80
2019-05-26T18:56:58.606Z,19.60
2019-05-26T18:59:27.392Z,19.50
2019-05-26T19:01:56.199Z,19.30
2019-05-26T19:04:24.928Z,19.30
2019-05-26T19:06:53.737Z,19.20
2019-05-26T19:09:22.771Z,19.10
2019-05-26T19:11:51.500Z,18.90
2019-05-26T19:14:20.260Z,18.90
2019-05-26T19:16:49.104Z,18.80
2019-05-26T19:19:17.923Z,18.70
2019-05-26T19:21:46.884Z,18.60
2019-05-26T19:24:15.721Z,18.40
2019-05-26T19:26:44.528Z,18.40
2019-05-26T19:29:13.388Z,18.30
2019-05-26T19:31:42.217Z,18.20
2019-05-26T19:34:11.245Z,18.10
2019-05-26T19:36:40.604Z,18.00
2019-05-26T19:39:10.417Z,18.00
2019-05-26T19:41:39.593Z,17.80
2019-05-26T19:44:09.646Z,17.80
2019-05-26T19:46:38.485Z,17.70
2019-05-26T19:49:07.392Z,17.60
2019-05-26T19:51:36.515Z,17.50
2019-05-26T19:54:05.360Z,17.40
2019-05-26T19:56:34.304Z,17.40
2019-05-26T19:59:03.359Z,17.30
2019-05-26T20:01:32.158Z,17.20
2019-05-26T20:04:01.010Z,17.10
2019-05-26T20:06:29.857Z,17.00
2019-05-26T20:08:58.676Z,16.90
2019-05-26T20:11:27.727Z,16.90
2019-05-26T20:13:56.524Z,16.90
2019-05-26T20:16:25.352Z,16.90
2019-05-26T20:18:54.148Z,16.80
2019-05-26T20:21:22.904Z,16.80
2019-05-26T20:23:52.020Z,16.70
2019-05-26T20:26:20.836Z,16.60
2019-05-26T20:28:49.875Z,16.50
2019-05-26T20:31:18.863Z,16.50
2019-05-26T20:33:47.605Z,16.50
2019-05-26T20:36:16.650Z,16.40
2019-05-26T20:38:45.504Z,16.40
2019-05-26T20:41:14.553Z,16.30
2019-05-26T20:43:43.396Z,16.30
2019-05-26T20:46:12.276Z,16.30
2019-05-26T20:48:41.261Z,16.20
2019-05-26T20:51:10.093Z,16.10
2019-05-26T20:53:40.580Z,16.10
2019-05-26T20:56:09.860Z,16.00
2019-05-26T20:58:38.838Z,16.00
2019-05-26T21:01:07.638Z,15.90
2019-05-26T21:03:36.864Z,15.80
2019-05-26T21:06:05.669Z,15.80
2019-05-26T21:08:34.479Z,15.70
2019-05-26T21:11:03.267Z,15.60
2019-05-26T21:13:32.490Z,15.60
2019-05-26T21:16:01.744Z,15.60
2019-05-26T21:18:30.771Z,15.60
2019-05-26T21:20:59.732Z,15.50
2019-05-26T21:23:28.487Z,15.50
2019-05-26T21:25:57.391Z,15.50
2019-05-26T21:28:26.407Z,15.40
2019-05-26T21:30:55.143Z,15.40
2019-05-26T21:33:23.859Z,15.40
2019-05-26T21:35:52.636Z,15.30
2019-05-26T21:38:21.371Z,15.30
2019-05-26T21:40:50.399Z,15.30
2019-05-26T21:43:19.174Z,15.30
2019-05-26T21:45:48.212Z,15.30
2019-05-26T21:48:16.927Z,15.30
2019-05-26T21:50:45.700Z,15.30
2019-05-26T21:53:14.484Z,15.30
2019-05-26T21:55:43.497Z,15.20
2019-05-26T21:58:12.348Z,15.20
2019-05-26T22:00:44.136Z,15.20
2019-05-26T22:03:12.969Z,15.10
2019-05-26T22:05:41.809Z,15.10
2019-05-26T22:08:10.831Z,15.10
2019-05-26T22:10:39.559Z,15.10
2019-05-26T22:13:08.509Z,15.00
2019-05-26T22:15:37.528Z,15.00
2019-05-26T22:18:06.456Z,15.00
2019-05-26T22:20:35.352Z,15.00
2019-05-26T22:23:04.217Z,14.90
2019-05-26T22:25:33.285Z,14.90
2019-05-26T22:28:02.364Z,15.00
2019-05-26T22:30:31.148Z,15.00
2019-05-26T22:32:59.963Z,15.00
2019-05-26T22:35:28.720Z,14.90
2019-05-26T22:37:57.490Z,14.90
2019-05-26T22:40:26.606Z,14.90
2019-05-26T22:42:55.376Z,14.90
2019-05-26T22:45:24.227Z,14.80
2019-05-26T22:47:52.973Z,14.80
2019-05-26T22:50:21.856Z,14.90
2019-05-26T22:52:50.603Z,14.90
2019-05-26T22:55:19.463Z,14.90
2019-05-26T22:57:48.276Z,15.00
2019-05-26T23:00:17.903Z,15.10
2019-05-26T23:02:47.049Z,15.30
2019-05-26T23:05:15.900Z,15.40
2019-05-26T23:07:44.878Z,15.50
2019-05-26T23:10:14.058Z,15.50
2019-05-26T23:12:42.851Z,15.60
2019-05-26T23:15:12.240Z,15.60
2019-05-26T23:17:41.069Z,15.60
2019-05-26T23:20:10.604Z,15.50
2019-05-26T23:22:39.427Z,15.50
2019-05-26T23:25:08.460Z,15.50
2019-05-26T23:27:37.547Z,15.40
2019-05-26T23:30:07.190Z,15.30
2019-05-26T23:32:36.029Z,15.30
2019-05-26T23:35:05.107Z,15.30
2019-05-26T23:37:34.316Z,15.20
2019-05-26T23:40:03.151Z,15.10
2019-05-26T23:42:32.157Z,15.10
2019-05-26T23:45:00.874Z,15.10
2019-05-26T23:47:29.671Z,15.00
2019-05-26T23:49:58.506Z,14.90
2019-05-26T23:52:27.256Z,14.90
2019-05-26T23:54:56.028Z,14.80
2019-05-26T23:57:24.939Z,14.80
2019-05-26T23:59:53.771Z,14.70
